地図

経路データ

SID SEASON NUMBER BASIN SUBBASIN NAME ISO_TIME NATURE LAT LON WMO_WIND WMO_PRES WMO_AGENCY TRACK_TYPE DIST2LAND LANDFALL IFLAG USA_AGENCY USA_ATCF_ID USA_LAT USA_LON USA_RECORD USA_STATUS USA_WIND USA_PRES USA_SSHS USA_R34_NE USA_R34_SE USA_R34_SW USA_R34_NW USA_R50_NE USA_R50_SE USA_R50_SW USA_R50_NW USA_R64_NE USA_R64_SE USA_R64_SW USA_R64_NW USA_POCI USA_ROCI USA_RMW USA_EYE TOKYO_LAT TOKYO_LON TOKYO_GRADE TOKYO_WIND TOKYO_PRES TOKYO_R50_DIR TOKYO_R50_LONG TOKYO_R50_SHORT TOKYO_R30_DIR TOKYO_R30_LONG TOKYO_R30_SHORT TOKYO_LAND CMA_LAT CMA_LON CMA_CAT CMA_WIND CMA_PRES HKO_LAT HKO_LON HKO_CAT HKO_WIND HKO_PRES NEWDELHI_LAT NEWDELHI_LON NEWDELHI_GRADE NEWDELHI_WIND NEWDELHI_PRES NEWDELHI_CI NEWDELHI_DP NEWDELHI_POCI REUNION_LAT REUNION_LON REUNION_TYPE REUNION_WIND REUNION_PRES REUNION_TNUM REUNION_CI REUNION_RMW REUNION_R34_NE REUNION_R34_SE REUNION_R34_SW REUNION_R34_NW REUNION_R50_NE REUNION_R50_SE REUNION_R50_SW REUNION_R50_NW REUNION_R64_NE REUNION_R64_SE REUNION_R64_SW REUNION_R64_NW BOM_LAT BOM_LON BOM_TYPE BOM_WIND BOM_PRES BOM_TNUM BOM_CI BOM_RMW BOM_R34_NE BOM_R34_SE BOM_R34_SW BOM_R34_NW BOM_R50_NE BOM_R50_SE BOM_R50_SW BOM_R50_NW BOM_R64_NE BOM_R64_SE BOM_R64_SW BOM_R64_NW BOM_ROCI BOM_POCI BOM_EYE BOM_POS_METHOD BOM_PRES_METHOD NADI_LAT NADI_LON NADI_CAT NADI_WIND NADI_PRES WELLINGTON_LAT WELLINGTON_LON WELLINGTON_WIND WELLINGTON_PRES DS824_LAT DS824_LON DS824_STAGE DS824_WIND DS824_PRES TD9636_LAT TD9636_LON TD9636_STAGE TD9636_WIND TD9636_PRES TD9635_LAT TD9635_LON TD9635_WIND TD9635_PRES TD9635_ROCI NEUMANN_LAT NEUMANN_LON NEUMANN_CLASS NEUMANN_WIND NEUMANN_PRES MLC_LAT MLC_LON MLC_CLASS MLC_WIND MLC_PRES USA_GUST BOM_GUST BOM_GUST_PER REUNION_GUST REUNION_GUST_PER USA_SEAHGT USA_SEARAD_NE USA_SEARAD_SE USA_SEARAD_SW USA_SEARAD_NW STORM_SPEED STORM_DIR
2022275N10316 2022 67 NA NA JULIA 2022-10-02 00:00:00 NR 9.50000 -44.5000 PROVISIONAL 950 907 O_____________ nhc_working_bt AL132022 9.50000 -44.5000 DB 20 -3 11 270
2022275N10316 2022 67 NA NA JULIA 2022-10-02 03:00:00 NR 9.50024 -45.0650 PROVISIONAL 899 857 P_____________ AL132022 9.50024 -45.0650 DB 20 -3 11 270
2022275N10316 2022 67 NA NA JULIA 2022-10-02 06:00:00 NR 9.50000 -45.6000 PROVISIONAL 857 818 O_____________ nhc_working_bt AL132022 9.50000 -45.6000 DB 20 -3 10 270
2022275N10316 2022 67 NA NA JULIA 2022-10-02 09:00:00 NR 9.49983 -46.0925 PROVISIONAL 818 780 P_____________ AL132022 9.49983 -46.0925 DB 20 -3 10 270
2022275N10316 2022 67 NA NA JULIA 2022-10-02 12:00:00 NR 9.50000 -46.6000 PROVISIONAL 780 737 O_____________ nhc_working_bt AL132022 9.50000 -46.6000 DB 20 1012 -3 11 270
2022275N10316 2022 67 NA NA JULIA 2022-10-02 15:00:00 NR 9.49997 -47.1850 PROVISIONAL 737 699 P_____________ AL132022 9.49997 -47.1850 DB 22 1012 -3 12 270
2022275N10316 2022 67 NA NA JULIA 2022-10-02 18:00:00 NR 9.50000 -47.8000 PROVISIONAL 699 664 O_____________ nhc_working_bt AL132022 9.50000 -47.8000 DB 25 1012 -3 1013 150 90 12 270
2022275N10316 2022 67 NA NA JULIA 2022-10-02 21:00:00 NR 9.50000 -48.4225 PROVISIONAL 664 624 P_____________ AL132022 9.50000 -48.4225 DB 25 1012 -3 1013 150 90 12 270
2022275N10316 2022 67 NA NA JULIA 2022-10-03 00:00:00 NR 9.50000 -49.0000 PROVISIONAL 624 597 O_____________ nhc_working_bt AL132022 9.50000 -49.0000 DB 25 1012 -3 1013 150 90 10 270
2022275N10316 2022 67 NA NA JULIA 2022-10-03 03:00:00 NR 9.49985 -49.4725 PROVISIONAL 590 566 P_____________ AL132022 9.49985 -49.4725 DB 25 1012 -3 1013 150 90 9 270
2022275N10316 2022 67 NA NA JULIA 2022-10-03 06:00:00 NR 9.50000 -49.9000 PROVISIONAL 566 544 O_____________ nhc_working_bt AL132022 9.50000 -49.9000 DB 25 1012 -3 1013 150 90 9 269
2022275N10316 2022 67 NA NA JULIA 2022-10-03 09:00:00 NR 9.48488 -50.3351 PROVISIONAL 544 519 P_____________ AL132022 9.48488 -50.3351 DB 25 1011 -3 1012 150 90 9 270
2022275N10316 2022 67 NA NA JULIA 2022-10-03 12:00:00 NR 9.50000 -50.8000 PROVISIONAL 519 498 O_____________ nhc_working_bt AL132022 9.50000 -50.8000 DB 25 1011 -3 1012 150 90 10 274
2022275N10316 2022 67 NA NA JULIA 2022-10-03 15:00:00 NR 9.55508 -51.3576 PROVISIONAL 505 489 P_____________ AL132022 9.55508 -51.3576 DB 25 1011 -3 1012 150 90 11 280
2022275N10316 2022 67 NA NA JULIA 2022-10-03 18:00:00 NR 9.70000 -51.9000 PROVISIONAL 494 489 O_____________ nhc_working_bt AL132022 9.70000 -51.9000 DB 25 1012 -3 1013 150 90 10 296
2022275N10316 2022 67 NA NA JULIA 2022-10-03 21:00:00 NR 9.98462 -52.2701 PROVISIONAL 504 504 P_____________ AL132022 9.98462 -52.2701 DB 25 1012 -3 1013 150 90 10 307
2022275N10316 2022 67 NA NA JULIA 2022-10-04 00:00:00 NR 10.3000 -52.7000 PROVISIONAL 519 516 O_____________ nhc_working_bt AL132022 10.3000 -52.7000 DB 25 1012 -3 1013 150 90 12 296
2022275N10316 2022 67 NA NA JULIA 2022-10-04 03:00:00 NR 10.5226 -53.3975 PROVISIONAL 522 521 P_____________ AL132022 10.5226 -53.3975 DB 25 1010 -3 1012 165 90 15 285
2022275N10316 2022 67 NA NA JULIA 2022-10-04 06:00:00 NR 10.7000 -54.2000 PROVISIONAL 537 537 O_____________ nhc_working_bt AL132022 10.7000 -54.2000 DB 25 1009 -3 1011 180 90 16 283
2022275N10316 2022 67 NA NA JULIA 2022-10-04 09:00:00 NR 10.8649 -54.9576 PROVISIONAL 546 494 P_____________ AL132022 10.8649 -54.9576 DB 25 1009 -3 1011 150 90 15 282
2022275N10316 2022 67 NA NA JULIA 2022-10-04 12:00:00 NR 11.0000 -55.7000 PROVISIONAL 494 449 O_____________ nhc_working_bt AL132022 11.0000 -55.7000 DB 25 1009 -3 1011 120 90 15 280
2022275N10316 2022 67 NA NA JULIA 2022-10-04 15:00:00 NR 11.1073 -56.4151 PROVISIONAL 449 414 P_____________ AL132022 11.1073 -56.4151 DB 27 1008 -3 1011 135 90 14 278
2022275N10316 2022 67 NA NA JULIA 2022-10-04 18:00:00 NR 11.2000 -57.1000 PROVISIONAL 414 366 O_____________ nhc_working_bt AL132022 11.2000 -57.1000 DB 30 1008 -3 1011 150 90 40 13 279
2022275N10316 2022 67 NA NA JULIA 2022-10-04 21:00:00 NR 11.3073 -57.7575 PROVISIONAL 355 294 P_____________ AL132022 11.3073 -57.7575 DB 30 1007 -3 1011 150 85 13 279
2022275N10316 2022 67 NA NA JULIA 2022-10-05 00:00:00 NR 11.4000 -58.4000 PROVISIONAL 294 236 O_____________ nhc_working_bt AL132022 11.4000 -58.4000 DB 30 1007 -3 1011 150 80 40 12 277
2022275N10316 2022 67 NA NA JULIA 2022-10-05 03:00:00 NR 11.4644 -58.9976 PROVISIONAL 236 167 P_____________ AL132022 11.4644 -58.9976 DB 30 1007 -3 1010 150 80 13 274
2022275N10316 2022 67 NA NA JULIA 2022-10-05 06:00:00 NR 11.5000 -59.7000 PROVISIONAL 167 95 O_____________ nhc_working_bt AL132022 11.5000 -59.7000 DB 30 1007 -3 1009 150 80 17 272
2022275N10316 2022 67 NA CS JULIA 2022-10-05 09:00:00 NR 11.5157 -60.7150 PROVISIONAL 95 89 P_____________ AL132022 11.5157 -60.7150 DB 30 1007 -3 1009 150 80 20 270
2022275N10316 2022 67 NA CS JULIA 2022-10-05 12:00:00 NR 11.5000 -61.7000 PROVISIONAL 89 89 O_____________ nhc_working_bt AL132022 11.5000 -61.7000 DB 30 1007 -3 1010 150 80 16 268
2022275N10316 2022 67 NA CS JULIA 2022-10-05 15:00:00 NR 11.4495 -62.3325 PROVISIONAL 78 78 P_____________ AL132022 11.4495 -62.3325 DB 30 1006 -3 1009 135 85 11 265
2022275N10316 2022 67 NA CS JULIA 2022-10-05 18:00:00 NR 11.4000 -62.8000 PROVISIONAL 78 78 O_____________ nhc_working_bt AL132022 11.4000 -62.8000 DB 30 1006 -3 1008 120 90 9 266
2022275N10316 2022 67 NA CS JULIA 2022-10-05 21:00:00 NR 11.3922 -63.2350 PROVISIONAL 79 79 P_____________ AL132022 11.3922 -63.2350 DB 30 1006 -3 1008 120 90 9 270
2022275N10316 2022 67 NA CS JULIA 2022-10-06 00:00:00 NR 11.4000 -63.7000 PROVISIONAL 89 89 O_____________ nhc_working_bt AL132022 11.4000 -63.7000 DB 30 1006 -3 1008 120 90 40 11 270
2022275N10316 2022 67 NA CS JULIA 2022-10-06 03:00:00 NR 11.3999 -64.3050 PROVISIONAL 90 90 P_____________ AL132022 11.3999 -64.3050 DB 30 1006 -3 1008 120 90 13 270
2022275N10316 2022 67 NA CS JULIA 2022-10-06 06:00:00 NR 11.4000 -65.0000 PROVISIONAL 125 95 O_____________ nhc_working_bt AL132022 11.4000 -65.0000 DB 30 1006 -3 1008 120 90 40 14 270
2022275N10316 2022 67 NA CS JULIA 2022-10-06 09:00:00 NR 11.3924 -65.7351 PROVISIONAL 95 89 P_____________ AL132022 11.3924 -65.7351 DB 30 1006 -3 1008 120 90 14 270
2022275N10316 2022 67 NA CS JULIA 2022-10-06 12:00:00 NR 11.4000 -66.4600 PROVISIONAL 89 89 O_____________ nhc_working_bt AL132022 11.4000 -66.5000 DB 30 1006 -3 1009 120 90 40 15 271
2022275N10316 2022 67 NA CS JULIA 2022-10-06 15:00:00 NR 11.4278 -67.2592 PROVISIONAL 95 55 P_____________ AL132022 11.4275 -67.2800 DB 30 1005 -3 1009 110 80 15 274
2022275N10316 2022 67 NA CS JULIA 2022-10-06 18:00:00 NR 11.5000 -68.0000 PROVISIONAL 55 35 O_____________ nhc_working_bt AL132022 11.5000 -68.0000 DB 30 1005 -3 1009 100 70 40 13 279
2022275N10316 2022 67 NA CS JULIA 2022-10-06 21:00:00 NR 11.6382 -68.5613 PROVISIONAL 31 31 P_____________ AL132022 11.6345 -68.5500 DB 30 1004 -3 1009 100 70 11 286
2022275N10316 2022 67 NA CS JULIA 2022-10-07 00:00:00 TS 11.8000 -69.1000 PROVISIONAL 44 10 O_____________ nhc_working_bt AL132022 11.8000 -69.1000 TD 30 1004 -1 1009 100 70 40 12 283
2022275N10316 2022 67 NA CS JULIA 2022-10-07 03:00:00 TS 11.9173 -69.7765 PROVISIONAL 0 0 P_____________ AL132022 11.9424 -69.8052 TD 30 1004 -1 1009 100 70 14 280
2022275N10316 2022 67 NA CS JULIA 2022-10-07 06:00:00 TS 12.0500 -70.5500 PROVISIONAL 31 0 O_____________ nhc_working_bt AL132022 12.1000 -70.6000 TD 30 1004 -1 1009 100 70 40 16 281
2022275N10316 2022 67 NA NA JULIA 2022-10-07 09:00:00 TS 12.2350 -71.4138 PROVISIONAL 0 0 P_____________ AL132022 12.2924 -71.4425 TD 32 1003 -1 1009 110 50 18 283
2022275N10316 2022 67 NA CS JULIA 2022-10-07 12:00:00 TS 12.4500 -72.3000 PROVISIONAL 35 24 O_____________ nhc_working_bt AL132022 12.5000 -72.3000 TS 35 1002 0 70 30 1009 120 30 45 12 90 17 286
2022275N10316 2022 67 NA CS JULIA 2022-10-07 15:00:00 TS 12.7123 -73.1260 PROVISIONAL 112 112 P_____________ AL132022 12.7373 -73.1223 TS 35 1002 0 70 1008 125 50 12 90 16 286
2022275N10316 2022 67 NA CS JULIA 2022-10-07 18:00:00 TS 12.9000 -73.9000 PROVISIONAL 179 179 O_____________ nhc_working_bt AL132022 12.9000 -73.9000 TS 35 1002 0 70 1008 130 70 45 12 90 90 14 277
2022275N10316 2022 67 NA CS JULIA 2022-10-07 21:00:00 TS 12.8906 -74.5778 PROVISIONAL 195 194 P_____________ AL132022 12.8869 -74.5778 TS 37 1000 0 80 1008 145 55 12 90 90 14 266
2022275N10316 2022 67 NA CS JULIA 2022-10-08 00:00:00 TS 12.8000 -75.3000 PROVISIONAL 206 206 O_____________ nhc_working_bt AL132022 12.8000 -75.3000 TS 40 999 0 90 50 1008 160 40 50 12 90 90 16 265
2022275N10316 2022 67 NA CS JULIA 2022-10-08 03:00:00 TS 12.7464 -76.2201 PROVISIONAL 234 234 P_____________ AL132022 12.7501 -76.2200 TS 45 999 0 95 65 1008 160 40 12 105 90 19 267
2022275N10316 2022 67 NA CS JULIA 2022-10-08 06:00:00 TS 12.7000 -77.2000 PROVISIONAL 296 296 O_____________ nhc_working_bt AL132022 12.7000 -77.2000 TS 50 999 0 100 80 40 1008 160 40 60 12 120 90 19 268
2022275N10316 2022 67 NA CS JULIA 2022-10-08 09:00:00 TS 12.6710 -78.1224 PROVISIONAL 368 358 P_____________ AL132022 12.6423 -78.1225 TS 52 996 0 95 80 40 1008 165 40 12 135 90 18 268
2022275N10316 2022 67 NA CS JULIA 2022-10-08 12:00:00 TS 12.6500 -79.0000 PROVISIONAL 358 347 O_____________ nhc_working_bt AL132022 12.6000 -79.0000 TS 55 994 0 90 40 40 80 40 20 30 1008 170 40 65 12 150 45 90 17 269
2022275N10316 2022 67 NA CS JULIA 2022-10-08 15:00:00 TS 12.6285 -79.8299 PROVISIONAL 347 314 P_____________ AL132022 12.5997 -79.8298 TS 55 993 0 95 45 45 85 40 25 30 1008 175 30 12 135 45 90 16 268
2022275N10316 2022 67 NA CS JULIA 2022-10-08 18:00:00 TS 12.6000 -80.6000 PROVISIONAL 314 238 O_____________ nhc_working_bt AL132022 12.6000 -80.6000 TS 55 993 0 100 50 50 90 40 30 30 1008 180 20 65 12 120 45 30 90 15 267
2022275N10316 2022 67 NA CS JULIA 2022-10-08 21:00:00 TS 12.5535 -81.3225 PROVISIONAL 238 162 P_____________ AL132022 12.5573 -81.3225 TS 60 991 0 100 55 55 95 45 35 35 1008 180 25 12 120 52 37 90 14 266
2022275N10316 2022 67 NA CS JULIA 2022-10-09 00:00:00 TS 12.5000 -82.0000 PROVISIONAL 162 97 O_____________ nhc_working_bt AL132022 12.5000 -82.0000 HU 65 989 1 100 60 60 100 50 40 40 30 1008 180 30 80 12 120 60 45 90 13 265
2022275N10316 2022 67 NA CS JULIA 2022-10-09 03:00:00 TS 12.4460 -82.6500 PROVISIONAL 97 21 P_____________ AL132022 12.4497 -82.6500 HU 70 985 1 100 65 60 100 50 40 40 30 1008 180 27 12 135 60 45 90 13 265
2022275N10316 2022 67 NA CS JULIA 2022-10-09 06:00:00 TS 12.4000 -83.3000 PROVISIONAL 21 0 O_____________ nhc_working_bt AL132022 12.4000 -83.3000 HU 75 982 1 100 70 60 100 50 40 30 40 30 20 1008 180 25 90 12 150 60 45 90 13 267
2022275N10316 2022 67 NA NA JULIA 2022-10-09 09:00:00 TS 12.3710 -83.9775 PROVISIONAL 0 0 P_____________ AL132022 12.3423 -83.9776 HU 70 985 1 90 65 55 90 45 30 25 35 30 20 1007 160 25 12 120 52 14 268
2022275N10316 2022 67 NA NA JULIA 2022-10-09 12:00:00 TS 12.3462 -84.7000 PROVISIONAL 0 0 O_____________ nhc_working_bt AL132022 12.3000 -84.7000 HU 65 989 1 80 60 50 80 40 20 20 30 30 20 1006 140 25 80 12 90 45 15 268
2022275N10316 2022 67 NA NA JULIA 2022-10-09 15:00:00 TS 12.3114 -85.4926 PROVISIONAL 0 0 P_____________ AL132022 12.2701 -85.5076 HU 55 993 0 70 55 45 70 20 10 10 15 1006 120 25 12 127 90 16 268
2022275N10316 2022 67 NA NA JULIA 2022-10-09 18:00:00 TS 12.3000 -86.3000 PROVISIONAL 0 0 O_____________ nhc_working_bt AL132022 12.3000 -86.3000 TS 45 998 0 60 50 40 60 1006 100 25 55 12 165 135 14 274
2022275N10316 2022 67 EP MM JULIA 2022-10-09 21:00:00 TS 12.4082 -86.9659 PROVISIONAL 0 0 P_____________ AL132022 12.4122 -86.9800 TS 42 999 0 55 50 35 55 1005 100 25 13 283
2022275N10316 2022 67 EP MM JULIA 2022-10-10 00:00:00 TS 12.6000 -87.6000 PROVISIONAL 24 22 O_____________ nhc_working_bt EP182022 12.6000 -87.6000 TS 40 1000 0 50 50 30 50 1005 100 25 50 14 291
2022275N10316 2022 67 EP MM JULIA 2022-10-10 03:00:00 TS 12.8925 -88.2585 PROVISIONAL 33 0 P_____________ EP182022 12.8350 -88.2299 TS 37 1000 0 35 40 25 1005 100 25 14 296
2022275N10316 2022 67 EP MM JULIA 2022-10-10 06:00:00 TS 13.2000 -88.8500 PROVISIONAL 10 10 O_____________ nhc_working_bt EP182022 13.1000 -88.8000 TS 35 1000 0 20 30 20 1005 100 25 45 11 296
2022275N10316 2022 67 EP MM JULIA 2022-10-10 09:00:00 TS 13.3771 -89.2719 PROVISIONAL 11 0 P_____________ EP182022 13.3196 -89.2430 TS 35 1001 0 20 30 20 1005 95 22 9 296
2022275N10316 2022 67 EP MM JULIA 2022-10-10 12:00:00 TS 13.6000 -89.7000 PROVISIONAL 0 0 O_____________ nhc_working_bt EP182022 13.6000 -89.7000 TS 35 1002 0 20 30 20 20 1005 90 20 45 12 302
2022275N10316 2022 67 EP MM JULIA 2022-10-10 15:00:00 TS 13.9957 -90.2940 PROVISIONAL 0 0 P_____________ EP182022 14.0106 -90.3016 TS 30 1004 -1 1006 90 40 16 306
2022275N10316 2022 67 EP MM JULIA 2022-10-10 18:00:00 NR 14.5000 -91.0000 PROVISIONAL 0 O_____________ nhc_working_bt EP182022 14.5000 -91.0000 DB 25 1006 -3 1008 90 60 35 17 306

IBTrACS Databaseについて

本データベースは、米国NOAAが公開する1842年以降の世界の熱帯低気圧のベストトラックデータアーカイブInternational Best Track Archive for Climate Stewardship (IBTrACS)を、ウェブで閲覧しやすい形式に変換したものです。

最終更新日:2022-11-16